createdAt,value
2022-08-20T00:01:29.773Z,73.46
2022-08-20T00:04:06.404Z,73.57
2022-08-20T00:06:40.449Z,73.58
2022-08-20T00:09:12.241Z,73.74
2022-08-20T00:11:44.607Z,73.83
2022-08-20T00:14:16.723Z,74.00
2022-08-20T00:16:48.625Z,74.34
2022-08-20T00:19:21.389Z,74.53
2022-08-20T00:21:57.991Z,74.93
2022-08-20T00:24:34.353Z,75.19
2022-08-20T00:27:06.700Z,75.15
2022-08-20T00:29:38.983Z,75.58
2022-08-20T00:32:11.020Z,75.92
2022-08-20T00:34:42.998Z,76.40
2022-08-20T00:37:15.530Z,76.45
2022-08-20T00:39:47.687Z,76.44
2022-08-20T00:42:19.545Z,76.37
2022-08-20T00:44:55.909Z,76.28
2022-08-20T00:47:27.791Z,76.51
2022-08-20T00:50:02.177Z,76.86
2022-08-20T00:52:34.574Z,76.80
2022-08-20T00:55:08.684Z,77.41
2022-08-20T00:58:01.369Z,77.10
2022-08-20T01:00:38.875Z,77.37
2022-08-20T01:03:15.041Z,77.38
2022-08-20T01:05:50.440Z,77.12
2022-08-20T01:08:26.796Z,76.95
2022-08-20T01:11:10.058Z,77.11
2022-08-20T01:13:44.700Z,77.10
2022-08-20T01:16:24.689Z,76.94
2022-08-20T01:18:58.719Z,76.87
2022-08-20T01:21:33.774Z,76.95
2022-08-20T01:24:21.056Z,77.02
2022-08-20T01:26:54.573Z,77.16
2022-08-20T01:29:33.854Z,77.24
2022-08-20T01:32:09.043Z,77.08
2022-08-20T01:34:41.073Z,77.15
2022-08-20T01:37:15.171Z,77.43
2022-08-20T01:39:47.107Z,77.65
2022-08-20T01:42:27.002Z,77.58
2022-08-20T01:44:59.020Z,77.70
2022-08-20T01:47:38.565Z,77.80
2022-08-20T01:50:25.233Z,77.90
2022-08-20T01:53:04.515Z,77.78
2022-08-20T01:55:36.663Z,77.91
2022-08-20T01:58:08.514Z,78.05
2022-08-20T02:00:40.605Z,78.33
2022-08-20T02:03:12.479Z,78.51
2022-08-20T02:05:45.064Z,78.97
2022-08-20T02:08:17.034Z,78.94
2022-08-20T02:10:49.352Z,78.88
2022-08-20T02:13:21.982Z,79.35
2022-08-20T02:15:53.864Z,79.70
2022-08-20T02:18:27.200Z,79.90
2022-08-20T02:20:59.313Z,79.74
2022-08-20T02:23:31.451Z,80.23
2022-08-20T02:26:03.381Z,80.47
2022-08-20T02:28:35.528Z,80.61
2022-08-20T02:31:09.392Z,80.64
2022-08-20T02:33:41.182Z,80.48
2022-08-20T02:36:36.547Z,80.63
2022-08-20T02:39:11.603Z,80.61
2022-08-20T02:41:44.070Z,80.87
2022-08-20T02:44:16.977Z,80.82
2022-08-20T02:46:51.240Z,81.06
2022-08-20T02:49:23.812Z,81.16
2022-08-20T02:51:55.714Z,81.27
2022-08-20T02:54:29.440Z,80.98
2022-08-20T02:57:02.433Z,81.11
2022-08-20T02:59:34.287Z,81.09
2022-08-20T03:02:06.560Z,80.79
2022-08-20T03:04:43.375Z,80.74
2022-08-20T03:07:18.057Z,80.69
2022-08-20T03:09:51.573Z,80.65
2022-08-20T03:12:23.382Z,80.56
2022-08-20T03:14:55.173Z,80.31
2022-08-20T03:17:27.122Z,80.72
2022-08-20T03:19:58.963Z,80.75
2022-08-20T03:22:30.833Z,80.94
2022-08-20T03:25:03.142Z,80.70
2022-08-20T03:27:36.438Z,80.63
2022-08-20T03:30:13.662Z,80.76
2022-08-20T03:32:46.406Z,80.68
2022-08-20T03:35:21.751Z,80.82
2022-08-20T03:37:53.972Z,80.65
2022-08-20T03:40:31.951Z,80.52
2022-08-20T03:43:04.980Z,80.83
2022-08-20T03:45:38.349Z,80.68
2022-08-20T03:48:13.256Z,80.95
2022-08-20T03:50:48.230Z,80.54
2022-08-20T03:53:23.589Z,80.87
2022-08-20T03:56:00.463Z,80.84
2022-08-20T03:58:36.036Z,80.96
2022-08-20T04:01:45.207Z,81.02
2022-08-20T04:04:01.796Z,81.26
2022-08-20T04:06:33.770Z,81.17
2022-08-20T04:09:05.842Z,81.32
2022-08-20T04:11:38.566Z,81.24
2022-08-20T04:14:18.570Z,81.42
2022-08-20T04:16:51.811Z,81.41
2022-08-20T04:19:34.407Z,81.82
2022-08-20T04:22:08.163Z,81.68
2022-08-20T04:24:40.253Z,81.94
2022-08-20T04:27:14.982Z,81.97
2022-08-20T04:29:47.113Z,82.13
2022-08-20T04:32:19.124Z,82.19
2022-08-20T04:34:52.304Z,82.20
2022-08-20T04:37:25.487Z,82.07
2022-08-20T04:40:15.616Z,82.21
2022-08-20T04:42:49.982Z,82.36
2022-08-20T04:45:25.880Z,82.52
2022-08-20T04:47:57.855Z,82.31
2022-08-20T04:50:30.101Z,82.37
2022-08-20T04:53:02.580Z,82.37
2022-08-20T04:55:35.499Z,82.45
2022-08-20T04:58:10.004Z,82.55
2022-08-20T05:00:42.209Z,82.53
2022-08-20T05:03:14.119Z,82.32
2022-08-20T05:05:46.682Z,82.47
2022-08-20T05:08:23.317Z,82.32
2022-08-20T05:10:59.882Z,82.10
2022-08-20T05:13:50.611Z,82.03
2022-08-20T05:16:24.226Z,82.09
2022-08-20T05:18:57.302Z,81.99
2022-08-20T05:21:29.562Z,82.23
2022-08-20T05:24:02.597Z,82.12
2022-08-20T05:27:24.930Z,82.15
2022-08-20T05:30:14.065Z,82.15
2022-08-20T05:32:48.943Z,82.28
2022-08-20T05:35:20.994Z,82.49
2022-08-20T05:38:38.021Z,82.51
2022-08-20T05:41:13.923Z,82.77
2022-08-20T05:44:02.936Z,82.85
2022-08-20T05:46:34.748Z,82.91
2022-08-20T05:49:08.041Z,82.99
2022-08-20T05:51:40.614Z,82.94
2022-08-20T05:54:12.998Z,82.90
2022-08-20T05:56:45.013Z,82.81
2022-08-20T05:59:19.976Z,82.68
2022-08-20T06:01:56.533Z,82.82
2022-08-20T06:04:32.183Z,82.72
2022-08-20T06:07:08.084Z,82.75
2022-08-20T06:09:44.339Z,82.89
2022-08-20T06:12:17.090Z,82.92
2022-08-20T06:14:49.142Z,82.96
2022-08-20T06:17:22.310Z,82.89
2022-08-20T06:19:54.360Z,83.00
2022-08-20T06:22:26.191Z,83.03
2022-08-20T06:24:58.929Z,82.81
2022-08-20T06:27:31.543Z,82.81
2022-08-20T06:30:04.174Z,82.75
2022-08-20T06:32:36.904Z,82.66
2022-08-20T06:35:11.609Z,82.71
2022-08-20T06:37:43.420Z,82.48
2022-08-20T06:40:21.305Z,82.27
2022-08-20T06:42:53.820Z,82.32
2022-08-20T06:45:27.898Z,82.11
2022-08-20T06:48:01.963Z,82.04
2022-08-20T06:50:47.277Z,81.70
2022-08-20T06:53:21.927Z,81.61
2022-08-20T06:55:56.967Z,81.23
2022-08-20T06:58:37.745Z,81.06
2022-08-20T07:01:12.327Z,80.78
2022-08-20T07:03:55.551Z,80.50
2022-08-20T07:06:28.627Z,80.08
2022-08-20T07:09:00.735Z,80.07
2022-08-20T07:11:33.155Z,79.69
2022-08-20T07:14:06.025Z,79.76
2022-08-20T07:16:37.882Z,79.56
2022-08-20T07:19:09.825Z,79.31
2022-08-20T07:21:42.090Z,79.31
2022-08-20T07:24:14.044Z,79.11
2022-08-20T07:26:45.874Z,78.81
2022-08-20T07:29:21.731Z,78.96
2022-08-20T07:32:11.558Z,78.75
2022-08-20T07:34:44.705Z,78.64
2022-08-20T07:37:16.759Z,78.42
2022-08-20T07:39:52.384Z,78.65
2022-08-20T07:42:24.596Z,78.43
2022-08-20T07:44:56.669Z,78.70
2022-08-20T07:47:28.754Z,78.70
2022-08-20T07:50:00.731Z,78.84
2022-08-20T07:52:35.496Z,78.76
2022-08-20T07:55:12.692Z,78.79
2022-08-20T07:57:46.953Z,78.73
2022-08-20T08:00:21.215Z,78.96
2022-08-20T08:02:53.191Z,78.94
2022-08-20T08:05:26.326Z,79.06
2022-08-20T08:07:58.969Z,79.04
2022-08-20T08:10:31.687Z,79.25
2022-08-20T08:13:08.794Z,79.06
2022-08-20T08:15:43.460Z,79.03
2022-08-20T08:18:21.747Z,79.03
2022-08-20T08:20:56.900Z,78.90
2022-08-20T08:23:31.586Z,79.21
2022-08-20T08:26:04.439Z,79.31
2022-08-20T08:28:37.172Z,79.38
2022-08-20T08:31:09.338Z,79.41
2022-08-20T08:33:41.899Z,79.45
2022-08-20T08:36:16.329Z,79.43
2022-08-20T08:38:48.762Z,79.10
2022-08-20T08:41:31.426Z,79.25
2022-08-20T08:44:09.582Z,79.24
2022-08-20T08:46:44.416Z,79.09
2022-08-20T08:49:19.770Z,78.81
2022-08-20T08:51:57.190Z,78.36
2022-08-20T08:54:33.489Z,77.99
2022-08-20T08:57:07.849Z,77.64
2022-08-20T08:59:48.502Z,77.70
2022-08-20T09:02:36.438Z,76.92
2022-08-20T09:05:17.865Z,76.83
2022-08-20T09:07:54.346Z,76.94
2022-08-20T09:10:29.318Z,76.75
2022-08-20T09:13:02.396Z,76.83
2022-08-20T09:15:37.741Z,76.66
2022-08-20T09:18:09.781Z,76.69
2022-08-20T09:20:41.776Z,76.82
2022-08-20T09:23:13.731Z,77.09
2022-08-20T09:25:46.882Z,77.01
2022-08-20T09:28:18.932Z,77.29
2022-08-20T09:30:51.105Z,77.48
2022-08-20T09:33:23.454Z,77.25
2022-08-20T09:35:55.870Z,77.12
2022-08-20T09:38:27.747Z,77.10
2022-08-20T09:40:59.910Z,77.45
2022-08-20T09:43:31.956Z,77.18
2022-08-20T09:46:04.012Z,76.82
2022-08-20T09:48:36.251Z,76.21
2022-08-20T09:51:08.716Z,75.68
2022-08-20T09:53:41.003Z,75.83
2022-08-20T09:56:15.186Z,75.66
2022-08-20T09:58:53.218Z,74.97
2022-08-20T10:01:25.708Z,73.88
2022-08-20T10:03:57.634Z,72.86
2022-08-20T10:06:32.422Z,73.06
2022-08-20T10:09:07.215Z,72.11
2022-08-20T10:11:39.155Z,72.49
2022-08-20T10:14:10.943Z,72.67
2022-08-20T10:16:43.091Z,71.58
2022-08-20T10:19:14.910Z,72.06
2022-08-20T10:21:46.895Z,71.71
2022-08-20T10:24:19.446Z,71.57
2022-08-20T10:26:51.769Z,70.71
2022-08-20T10:29:23.906Z,70.62
2022-08-20T10:31:57.253Z,70.47
2022-08-20T10:34:29.374Z,70.74
2022-08-20T10:37:01.465Z,70.99
2022-08-20T10:39:33.290Z,71.60
2022-08-20T10:42:05.619Z,71.65
2022-08-20T10:44:37.706Z,71.73
2022-08-20T10:47:26.653Z,70.96
2022-08-20T10:50:02.141Z,70.31
2022-08-20T10:52:34.401Z,70.92
2022-08-20T10:55:07.911Z,70.34
2022-08-20T10:57:41.892Z,69.39
2022-08-20T11:00:18.335Z,69.33
2022-08-20T11:02:50.862Z,69.13
2022-08-20T11:05:22.798Z,68.58
2022-08-20T11:08:00.281Z,68.11
2022-08-20T11:10:35.055Z,67.83
2022-08-20T11:13:08.668Z,68.14
2022-08-20T11:15:42.784Z,67.79
2022-08-20T11:18:15.589Z,67.30
2022-08-20T11:20:49.028Z,68.09
2022-08-20T11:23:21.013Z,67.20
2022-08-20T11:25:53.841Z,67.54
2022-08-20T11:28:31.412Z,67.29
2022-08-20T11:31:04.584Z,67.27
2022-08-20T11:33:38.277Z,65.83
2022-08-20T11:36:12.210Z,65.39
2022-08-20T11:38:44.495Z,64.96
2022-08-20T11:41:17.266Z,65.73
2022-08-20T11:44:10.555Z,66.05
2022-08-20T11:46:41.252Z,65.59
2022-08-20T11:49:13.451Z,65.51
2022-08-20T11:51:49.479Z,64.68
2022-08-20T11:54:22.030Z,64.11
2022-08-20T11:56:53.943Z,64.79
2022-08-20T11:59:26.032Z,64.38
2022-08-20T12:02:03.339Z,64.19
2022-08-20T12:04:36.300Z,63.96
2022-08-20T12:07:14.783Z,63.99
2022-08-20T12:09:50.904Z,62.74
2022-08-20T12:12:24.665Z,61.74
2022-08-20T12:14:57.997Z,62.36
2022-08-20T12:17:32.871Z,62.48
2022-08-20T12:20:12.335Z,62.51
2022-08-20T12:22:45.009Z,62.25
2022-08-20T12:25:17.491Z,62.40
2022-08-20T12:27:49.697Z,62.22
2022-08-20T12:30:24.786Z,62.12
2022-08-20T12:32:56.715Z,62.28
2022-08-20T12:35:29.905Z,61.95
2022-08-20T12:38:07.114Z,60.64
2022-08-20T12:40:39.577Z,60.91
2022-08-20T12:43:11.493Z,60.52
2022-08-20T12:45:43.538Z,61.74
2022-08-20T12:48:16.183Z,60.62
2022-08-20T12:50:50.113Z,60.12
2022-08-20T12:53:24.683Z,60.68
2022-08-20T12:55:57.123Z,60.64
2022-08-20T12:58:29.193Z,60.96
2022-08-20T13:01:01.065Z,59.81
2022-08-20T13:03:33.011Z,59.46
2022-08-20T13:06:12.774Z,59.73
2022-08-20T13:08:44.656Z,59.42
2022-08-20T13:11:16.715Z,59.49
2022-08-20T13:13:48.709Z,59.81
2022-08-20T13:16:20.668Z,59.56
2022-08-20T13:18:52.588Z,59.73
2022-08-20T13:21:24.406Z,59.18
2022-08-20T13:23:56.414Z,58.86
2022-08-20T13:26:28.301Z,58.44
2022-08-20T13:29:00.241Z,58.36
2022-08-20T13:31:35.188Z,58.15
2022-08-20T13:34:07.101Z,57.96
2022-08-20T13:36:39.121Z,57.81
2022-08-20T13:39:11.063Z,57.94
2022-08-20T13:41:43.775Z,58.08
2022-08-20T13:44:15.568Z,58.41
2022-08-20T13:46:48.718Z,57.63
2022-08-20T13:49:20.751Z,57.64
2022-08-20T13:51:52.650Z,57.36
2022-08-20T13:54:27.174Z,57.50
2022-08-20T13:57:10.352Z,56.34
2022-08-20T13:59:44.028Z,56.83
2022-08-20T14:02:18.561Z,56.86
2022-08-20T14:04:51.898Z,56.94
2022-08-20T14:07:31.979Z,56.47
2022-08-20T14:10:09.200Z,56.24
2022-08-20T14:12:41.255Z,57.28
2022-08-20T14:15:15.385Z,57.25
2022-08-20T14:17:53.841Z,57.22
2022-08-20T14:20:29.288Z,57.92
2022-08-20T14:23:04.321Z,57.45
2022-08-20T14:25:36.736Z,57.73
2022-08-20T14:28:18.663Z,57.57
2022-08-20T14:30:53.302Z,57.00
2022-08-20T14:33:26.824Z,57.47
2022-08-20T14:35:59.009Z,57.66
2022-08-20T14:38:30.784Z,58.00
2022-08-20T14:41:02.758Z,58.12
2022-08-20T14:43:34.586Z,57.78
2022-08-20T14:46:06.678Z,58.44
2022-08-20T14:48:38.619Z,58.65
2022-08-20T14:51:10.738Z,59.05
2022-08-20T14:53:42.553Z,59.88
2022-08-20T14:56:15.695Z,59.89
2022-08-20T14:58:47.641Z,59.69
2022-08-20T15:01:19.734Z,60.50
2022-08-20T15:03:51.785Z,59.40
2022-08-20T15:06:25.937Z,59.51
2022-08-20T15:08:58.138Z,58.92
2022-08-20T15:11:34.099Z,59.34
2022-08-20T15:14:06.620Z,58.93
2022-08-20T15:16:39.503Z,59.12
2022-08-20T15:19:11.467Z,59.30
2022-08-20T15:21:45.079Z,59.52
2022-08-20T15:24:19.363Z,60.20
2022-08-20T15:26:51.741Z,60.17
2022-08-20T15:29:23.693Z,60.34
2022-08-20T15:31:56.042Z,60.62
2022-08-20T15:34:31.914Z,60.30
2022-08-20T15:37:09.795Z,60.40
2022-08-20T15:39:45.723Z,60.43
2022-08-20T15:42:18.949Z,59.95
2022-08-20T15:44:51.788Z,59.79
2022-08-20T15:47:29.270Z,60.08
2022-08-20T15:50:07.984Z,60.18
2022-08-20T15:52:47.801Z,61.04
2022-08-20T15:55:20.074Z,60.67
2022-08-20T15:58:02.559Z,61.09
2022-08-20T16:00:41.733Z,60.99
2022-08-20T16:03:35.333Z,60.86
2022-08-20T16:06:13.677Z,61.15
2022-08-20T16:09:03.345Z,61.44
2022-08-20T16:11:52.287Z,61.31
2022-08-20T16:14:29.395Z,61.43
2022-08-20T16:17:10.978Z,61.35
2022-08-20T16:19:52.881Z,61.53
2022-08-20T16:22:35.254Z,61.68
2022-08-20T16:25:08.952Z,61.57
2022-08-20T16:27:50.414Z,61.93
2022-08-20T16:30:33.742Z,61.88
2022-08-20T16:33:10.756Z,61.67
2022-08-20T16:35:52.224Z,62.00
2022-08-20T16:38:34.382Z,62.08
2022-08-20T16:41:14.234Z,62.01
2022-08-20T16:43:53.517Z,61.95
2022-08-20T16:46:30.042Z,61.92
2022-08-20T16:49:06.509Z,62.29
2022-08-20T16:51:46.155Z,62.24
2022-08-20T16:54:28.445Z,62.40
2022-08-20T16:57:06.085Z,62.75
2022-08-20T16:59:57.468Z,62.58
2022-08-20T17:02:29.725Z,62.86
2022-08-20T17:05:06.739Z,63.14
2022-08-20T17:07:49.446Z,63.33
2022-08-20T17:10:26.819Z,62.95
2022-08-20T17:13:04.064Z,63.14
2022-08-20T17:15:38.715Z,63.28
2022-08-20T17:18:29.368Z,63.19
2022-08-20T17:21:06.107Z,63.30
2022-08-20T17:23:55.592Z,63.54
2022-08-20T17:26:36.159Z,63.57
2022-08-20T17:29:16.356Z,63.98
2022-08-20T17:31:52.711Z,63.87
2022-08-20T17:34:28.568Z,63.97
2022-08-20T17:37:04.700Z,64.35
2022-08-20T17:39:45.826Z,64.38
2022-08-20T17:42:22.608Z,64.62
2022-08-20T17:45:03.096Z,64.52
2022-08-20T17:47:40.115Z,64.32
2022-08-20T17:50:20.837Z,64.58
2022-08-20T17:53:03.597Z,64.76
2022-08-20T17:55:39.064Z,65.01
2022-08-20T17:58:16.464Z,64.92
2022-08-20T18:00:48.481Z,65.34
2022-08-20T18:03:23.686Z,65.02
2022-08-20T18:06:12.043Z,65.45
2022-08-20T18:09:00.575Z,65.35
2022-08-20T18:11:40.666Z,65.28
2022-08-20T18:14:35.342Z,65.44
2022-08-20T18:17:18.517Z,65.40
2022-08-20T18:20:21.277Z,65.32
2022-08-20T18:22:59.276Z,65.44
2022-08-20T18:25:37.067Z,65.56
2022-08-20T18:28:15.591Z,65.50
2022-08-20T18:30:57.089Z,65.84
2022-08-20T18:33:33.375Z,65.64
2022-08-20T18:36:11.721Z,65.90
2022-08-20T18:38:56.426Z,66.34
2022-08-20T18:41:32.854Z,66.51
2022-08-20T18:44:09.048Z,66.45
2022-08-20T18:46:54.491Z,66.88
2022-08-20T18:49:33.906Z,67.18
2022-08-20T18:52:14.573Z,67.33
2022-08-20T18:54:55.639Z,67.43
2022-08-20T18:57:40.697Z,68.10
2022-08-20T19:00:18.392Z,67.90
2022-08-20T19:02:58.129Z,68.02
2022-08-20T19:05:38.203Z,68.49
2022-08-20T19:08:10.724Z,68.36
2022-08-20T19:10:51.254Z,68.13
2022-08-20T19:13:49.713Z,68.55
2022-08-20T19:16:37.205Z,68.71
2022-08-20T19:19:16.967Z,68.53
2022-08-20T19:21:49.449Z,68.40
2022-08-20T19:24:28.716Z,68.16
2022-08-20T19:27:04.732Z,68.09
2022-08-20T19:29:43.591Z,68.31
2022-08-20T19:32:22.125Z,68.24
2022-08-20T19:34:57.211Z,68.20
2022-08-20T19:37:39.842Z,68.48
2022-08-20T19:40:28.315Z,68.67
2022-08-20T19:43:03.563Z,68.84
2022-08-20T19:45:45.360Z,68.88
2022-08-20T19:48:42.595Z,68.73
2022-08-20T19:51:23.901Z,69.23
2022-08-20T19:53:55.996Z,69.65
2022-08-20T19:56:29.545Z,70.01
2022-08-20T19:59:05.283Z,69.86
2022-08-20T20:01:37.612Z,69.82
2022-08-20T20:04:18.076Z,70.54
2022-08-20T20:06:51.672Z,70.76
2022-08-20T20:09:28.340Z,71.07
2022-08-20T20:12:09.682Z,71.47
2022-08-20T20:14:54.996Z,71.34
2022-08-20T20:17:32.926Z,71.85
2022-08-20T20:20:21.574Z,71.64
2022-08-20T20:23:00.901Z,71.67
2022-08-20T20:25:45.788Z,72.00
2022-08-20T20:28:23.989Z,71.72
2022-08-20T20:31:06.438Z,71.50
2022-08-20T20:33:43.927Z,71.60
2022-08-20T20:36:19.954Z,71.94
2022-08-20T20:38:59.201Z,71.90
2022-08-20T20:41:36.077Z,72.09
2022-08-20T20:44:21.227Z,72.29
2022-08-20T20:46:57.304Z,72.28
2022-08-20T20:49:32.404Z,72.68
2022-08-20T20:52:15.136Z,73.12
2022-08-20T20:54:49.044Z,73.28
2022-08-20T20:57:32.682Z,73.63
2022-08-20T21:00:17.524Z,74.02
2022-08-20T21:02:53.280Z,74.36
2022-08-20T21:05:28.757Z,74.56
2022-08-20T21:08:03.428Z,74.69
2022-08-20T21:10:38.577Z,74.68
2022-08-20T21:13:13.700Z,74.86
2022-08-20T21:15:45.843Z,74.66
2022-08-20T21:18:21.903Z,74.61
2022-08-20T21:20:58.662Z,74.53
2022-08-20T21:23:39.622Z,74.46
2022-08-20T21:26:14.503Z,74.39
2022-08-20T21:28:46.505Z,74.30
2022-08-20T21:31:18.447Z,74.29
2022-08-20T21:33:50.490Z,74.21
2022-08-20T21:36:22.494Z,74.22
2022-08-20T21:38:54.477Z,74.32
2022-08-20T21:41:29.874Z,74.33
2022-08-20T21:44:04.993Z,74.46
2022-08-20T21:46:36.922Z,74.62
2022-08-20T21:49:09.105Z,74.72
2022-08-20T21:51:40.948Z,74.87
2022-08-20T21:54:12.812Z,74.87
2022-08-20T21:56:47.164Z,75.17
2022-08-20T21:59:20.692Z,75.19
2022-08-20T22:01:53.158Z,75.28
2022-08-20T22:04:45.742Z,75.44
2022-08-20T22:07:18.130Z,75.37
2022-08-20T22:09:51.076Z,75.62
2022-08-20T22:12:26.706Z,75.66
2022-08-20T22:14:58.554Z,75.69
2022-08-20T22:17:30.813Z,75.84
2022-08-20T22:20:02.701Z,75.87
2022-08-20T22:22:34.789Z,76.07
2022-08-20T22:25:07.901Z,76.11
2022-08-20T22:27:44.355Z,76.34
2022-08-20T22:30:16.568Z,76.34
2022-08-20T22:32:51.786Z,76.34
2022-08-20T22:35:25.031Z,76.35
2022-08-20T22:37:57.212Z,76.33
2022-08-20T22:40:29.103Z,76.52
2022-08-20T22:43:01.182Z,76.77
2022-08-20T22:45:33.333Z,76.92
2022-08-20T22:48:06.826Z,77.27
2022-08-20T22:50:39.671Z,77.99
2022-08-20T22:53:16.003Z,78.54
2022-08-20T22:55:47.958Z,78.65
2022-08-20T22:58:21.000Z,78.74
2022-08-20T23:01:04.728Z,78.68
2022-08-20T23:03:39.083Z,78.85
2022-08-20T23:06:13.840Z,78.90
2022-08-20T23:08:46.633Z,78.81
2022-08-20T23:11:20.636Z,78.92
2022-08-20T23:13:52.698Z,78.95
2022-08-20T23:16:25.112Z,78.89
2022-08-20T23:22:15.045Z,78.91
2022-08-20T23:24:47.764Z,79.09
2022-08-20T23:27:21.823Z,78.90
2022-08-20T23:29:54.260Z,79.16
2022-08-20T23:32:26.250Z,79.15
2022-08-20T23:34:58.080Z,79.27
2022-08-20T23:37:31.277Z,79.34
2022-08-20T23:40:05.915Z,79.50
2022-08-20T23:42:38.423Z,79.54
2022-08-20T23:45:12.954Z,79.85
2022-08-20T23:47:45.447Z,80.08
2022-08-20T23:50:21.225Z,80.50
2022-08-20T23:53:00.150Z,80.54
2022-08-20T23:55:33.113Z,80.75
2022-08-20T23:58:05.567Z,80.86
